Time;durP1;ratioP1;P1;durP2;ratioP2;P2;SDS_P1;SDS_P2;PMS_P1;PMS_P2;Temp;Humidity;BMP_temperature;BMP_pressure;BME280_temperature;BME280_humidity;BME280_pressure;Samples;Min_cycle;Max_cycle;Signal;HPM_P1;HPM_P2
2021/12/22 00:00:52;;;;;;;10.80;5.63;;;-0.60;80.10;;;;;;5001379;28;20568;-45
2021/12/22 00:03:19;;;;;;;6.93;5.70;;;-0.70;80.00;;;;;;5004060;28;20803;-45
2021/12/22 00:05:48;;;;;;;9.50;6.77;;;-0.70;80.30;;;;;;4999574;28;20457;-45
2021/12/22 00:08:17;;;;;;;12.37;7.03;;;-0.70;80.40;;;;;;4985393;28;20974;-45
2021/12/22 00:10:45;;;;;;;15.10;6.57;;;-0.70;80.40;;;;;;4985385;28;20500;-45
2021/12/22 00:13:12;;;;;;;9.67;7.17;;;-0.70;80.30;;;;;;5003713;28;20555;-45
2021/12/22 00:15:39;;;;;;;9.10;6.80;;;-0.70;80.60;;;;;;5000217;28;20459;-45
2021/12/22 00:18:06;;;;;;;9.40;6.80;;;-0.70;80.50;;;;;;5001281;28;20454;-45
2021/12/22 00:20:33;;;;;;;10.00;6.97;;;-0.70;80.50;;;;;;4986414;28;21068;-45
2021/12/22 00:23:00;;;;;;;11.60;7.30;;;-0.70;80.30;;;;;;5000953;28;20470;-45
2021/12/22 00:25:28;;;;;;;7.03;6.33;;;-0.70;80.40;;;;;;5000097;28;20496;-45
2021/12/22 00:27:58;;;;;;;8.47;7.60;;;-0.70;80.60;;;;;;4999182;28;20453;-45
2021/12/22 00:30:26;;;;;;;14.03;7.17;;;-0.70;80.70;;;;;;4969149;28;20457;-45
2021/12/22 00:32:55;;;;;;;9.70;7.20;;;-0.80;80.80;;;;;;5004251;28;20456;-45
2021/12/22 00:35:29;;;;;;;16.17;6.53;;;-0.80;81.00;;;;;;4988002;28;20975;-45
2021/12/22 00:37:56;;;;;;;10.57;7.33;;;-0.80;81.10;;;;;;4987442;28;20464;-45
2021/12/22 00:40:23;;;;;;;7.80;6.67;;;-0.80;81.20;;;;;;5002426;28;20480;-45
2021/12/22 00:42:50;;;;;;;8.83;6.03;;;-0.80;81.00;;;;;;4990186;28;20479;-45
2021/12/22 00:45:18;;;;;;;7.23;6.30;;;-0.80;80.80;;;;;;5000426;28;20477;-45
2021/12/22 00:47:45;;;;;;;10.80;6.70;;;-0.80;80.70;;;;;;5002471;28;20637;-45
2021/12/22 00:50:12;;;;;;;10.83;7.67;;;-0.80;80.70;;;;;;4982368;28;20448;-45
2021/12/22 00:52:39;;;;;;;9.20;6.10;;;-0.80;80.70;;;;;;4974081;28;20671;-45
2021/12/22 00:55:06;;;;;;;14.30;7.60;;;-0.80;80.60;;;;;;5002335;28;20460;-45
2021/12/22 00:57:34;;;;;;;11.30;6.33;;;-0.90;80.70;;;;;;4985438;28;20741;-45
2021/12/22 01:00:01;;;;;;;12.40;6.63;;;-0.90;80.80;;;;;;4998807;28;20476;-45
2021/12/22 01:02:28;;;;;;;11.13;6.27;;;-0.90;80.90;;;;;;4981885;28;20852;-45
2021/12/22 01:04:55;;;;;;;12.03;6.30;;;-0.90;80.90;;;;;;4999561;28;20543;-45
2021/12/22 01:07:22;;;;;;;10.53;7.77;;;-1.00;81.10;;;;;;4998442;28;20461;-45
2021/12/22 01:09:58;;;;;;;17.13;7.40;;;-1.00;81.20;;;;;;4999600;28;20874;-45
2021/12/22 01:12:25;;;;;;;9.40;6.97;;;-1.00;81.10;;;;;;4998527;28;20461;-45
2021/12/22 01:14:52;;;;;;;11.77;7.90;;;-1.00;81.00;;;;;;4988166;28;20460;-45
2021/12/22 01:17:20;;;;;;;9.37;7.30;;;-1.00;81.00;;;;;;5002091;28;20468;-45
2021/12/22 01:25:01;;;;;;;9.97;6.70;;;-1.00;80.70;;;;;;4998876;28;20463;-44
2021/12/22 01:27:35;;;;;;;7.23;6.20;;;-1.00;80.70;;;;;;4981142;28;20464;-44
2021/12/22 01:30:24;;;;;;;9.13;6.70;;;-1.00;80.60;;;;;;4998992;28;20453;-44
2021/12/22 01:32:54;;;;;;;10.73;6.03;;;-1.00;80.50;;;;;;5002356;28;20461;-45
2021/12/22 01:35:24;;;;;;;14.30;7.13;;;-1.00;80.50;;;;;;4984032;28;20460;-45
2021/12/22 01:37:52;;;;;;;13.70;7.10;;;-1.10;80.80;;;;;;5000321;28;20460;-44
2021/12/22 01:40:21;;;;;;;9.57;6.80;;;-1.10;80.70;;;;;;4987609;28;20471;-44
2021/12/22 01:42:48;;;;;;;10.40;7.07;;;-1.10;80.90;;;;;;5000360;28;20471;-44
2021/12/22 01:45:56;;;;;;;9.40;7.00;;;-1.10;80.90;;;;;;4972487;28;21112;-45
2021/12/22 01:49:11;;;;;;;11.63;6.87;;;-1.10;81.10;;;;;;4997675;28;20992;-45
2021/12/22 01:51:38;;;;;;;6.57;5.70;;;-1.20;81.30;;;;;;4997755;28;20464;-45
2021/12/22 01:54:11;;;;;;;11.00;6.83;;;-1.20;81.40;;;;;;5004413;28;20996;-45
2021/12/22 01:56:38;;;;;;;8.47;6.17;;;-1.20;81.50;;;;;;5000756;28;20472;-45
2021/12/22 01:59:07;;;;;;;14.70;8.77;;;-1.20;81.30;;;;;;5000717;28;20518;-45
2021/12/22 02:01:35;;;;;;;10.43;7.33;;;-1.20;81.20;;;;;;4998847;28;20489;-45
2021/12/22 02:04:04;;;;;;;10.10;6.90;;;-1.20;81.20;;;;;;4984282;28;20453;-45
2021/12/22 02:06:31;;;;;;;11.70;7.50;;;-1.20;81.20;;;;;;4997178;28;20953;-45
2021/12/22 02:08:59;;;;;;;8.63;6.20;;;-1.20;81.30;;;;;;4984335;28;20773;-44
2021/12/22 02:11:26;;;;;;;12.10;7.60;;;-1.20;81.30;;;;;;5004501;28;20471;-44
2021/12/22 02:14:00;;;;;;;8.43;6.80;;;-1.20;81.00;;;;;;5004692;28;20475;-45
2021/12/22 02:16:32;;;;;;;8.77;6.33;;;-1.20;81.10;;;;;;4999711;28;21090;-45
2021/12/22 02:19:00;;;;;;;13.40;7.00;;;-1.20;81.10;;;;;;5002066;28;20473;-45
2021/12/22 02:21:32;;;;;;;11.27;7.03;;;-1.20;81.00;;;;;;4984287;28;20488;-45
2021/12/22 02:23:59;;;;;;;10.60;6.63;;;-1.20;80.90;;;;;;4985518;28;20468;-44
2021/12/22 02:26:46;;;;;;;6.60;5.97;;;-1.20;80.80;;;;;;5003232;28;20551;-44
2021/12/22 02:29:20;;;;;;;10.43;6.27;;;-1.20;80.80;;;;;;5007301;28;20989;-44
2021/12/22 02:32:06;;;;;;;9.13;7.47;;;-1.20;80.50;;;;;;4991708;28;20900;-44
2021/12/22 02:34:41;;;;;;;9.80;6.67;;;-1.20;80.70;;;;;;4992204;28;20991;-44
2021/12/22 02:37:14;;;;;;;8.77;5.70;;;-1.30;80.70;;;;;;5003347;28;20497;-44
2021/12/22 02:39:56;;;;;;;9.47;6.67;;;-1.30;80.90;;;;;;5003053;28;20499;-44
2021/12/22 02:42:27;;;;;;;10.07;7.03;;;-1.40;81.20;;;;;;4991052;28;20489;-44
2021/12/22 02:44:53;;;;;;;10.30;6.57;;;-1.40;81.40;;;;;;4990883;28;20464;-44
2021/12/22 02:47:23;;;;;;;10.90;6.90;;;-1.40;81.40;;;;;;5002300;28;20599;-44
2021/12/22 02:49:51;;;;;;;12.67;7.90;;;-1.40;81.30;;;;;;5001601;28;21203;-44
2021/12/22 02:52:19;;;;;;;9.00;6.60;;;-1.40;81.20;;;;;;5004374;28;20472;-44
2021/12/22 02:54:56;;;;;;;9.23;6.80;;;-1.40;81.20;;;;;;5000720;28;20474;-44
2021/12/22 02:57:30;;;;;;;7.57;6.90;;;-1.40;81.30;;;;;;5002742;28;20999;-44
2021/12/22 03:05:10;;;;;;;9.73;6.10;;;-1.40;81.10;;;;;;4984843;28;20461;-44
2021/12/22 03:07:37;;;;;;;12.63;7.47;;;-1.40;81.00;;;;;;5004546;28;20815;-44
2021/12/22 03:10:14;;;;;;;9.10;6.53;;;-1.40;81.00;;;;;;5004220;28;21105;-44
2021/12/22 03:12:41;;;;;;;11.97;6.43;;;-1.40;81.00;;;;;;4990928;28;20766;-44
2021/12/22 03:15:09;;;;;;;13.73;6.40;;;-1.40;81.20;;;;;;5003573;28;20470;-44
2021/12/22 03:17:40;;;;;;;11.87;7.30;;;-1.40;81.20;;;;;;4990307;28;20917;-45
2021/12/22 03:20:09;;;;;;;7.77;6.40;;;-1.40;81.30;;;;;;5004062;28;20470;-44
2021/12/22 03:22:37;;;;;;;10.17;6.20;;;-1.40;81.30;;;;;;4983919;28;20488;-44
2021/12/22 03:25:13;;;;;;;7.43;6.73;;;-1.40;81.30;;;;;;5004364;28;21021;-44
2021/12/22 03:27:45;;;;;;;10.00;7.20;;;-1.40;81.30;;;;;;5001176;28;20462;-44
2021/12/22 03:30:14;;;;;;;11.00;7.30;;;-1.40;81.30;;;;;;4986778;28;20461;-44
2021/12/22 03:32:41;;;;;;;9.43;7.10;;;-1.40;81.20;;;;;;4987857;28;20467;-44
2021/12/22 03:35:15;;;;;;;11.33;7.60;;;-1.40;81.10;;;;;;4988797;28;20467;-44
2021/12/22 03:37:42;;;;;;;8.97;6.93;;;-1.50;81.20;;;;;;5002837;28;20500;-44
2021/12/22 03:40:10;;;;;;;9.60;6.37;;;-1.50;81.40;;;;;;4986411;28;20480;-45
2021/12/22 03:42:37;;;;;;;12.73;6.53;;;-1.50;81.60;;;;;;5002708;28;20514;-44
2021/12/22 03:45:04;;;;;;;10.13;6.80;;;-1.50;81.60;;;;;;5003093;28;20819;-44
2021/12/22 03:47:31;;;;;;;9.20;7.33;;;-1.50;81.60;;;;;;5001139;28;20462;-44
2021/12/22 03:49:58;;;;;;;7.37;6.20;;;-1.50;81.50;;;;;;5003646;28;20992;-44
2021/12/22 03:52:25;;;;;;;10.53;7.63;;;-1.50;81.40;;;;;;4986001;28;20471;-44
2021/12/22 03:54:59;;;;;;;7.50;6.63;;;-1.50;81.50;;;;;;4974024;28;20923;-44
2021/12/22 03:57:28;;;;;;;8.77;7.50;;;-1.50;81.60;;;;;;5005184;28;20464;-44
2021/12/22 03:59:58;;;;;;;10.70;6.90;;;-1.50;81.50;;;;;;5002762;28;20512;-44
2021/12/22 04:02:27;;;;;;;7.90;7.20;;;-1.50;81.60;;;;;;5000419;28;20491;-45
2021/12/22 04:04:54;;;;;;;11.90;7.93;;;-1.50;81.50;;;;;;4987664;28;20470;-44
2021/12/22 04:07:21;;;;;;;11.57;7.30;;;-1.50;81.40;;;;;;4989252;28;20468;-44
2021/12/22 04:09:48;;;;;;;10.17;7.30;;;-1.50;81.40;;;;;;4988966;28;20480;-44
2021/12/22 04:12:14;;;;;;;8.20;6.47;;;-1.50;81.30;;;;;;4989736;28;20464;-44
2021/12/22 04:14:41;;;;;;;11.77;8.60;;;-1.50;81.40;;;;;;5003410;28;20472;-44
2021/12/22 04:17:08;;;;;;;8.67;6.50;;;-1.50;81.20;;;;;;4983294;28;20462;-44
2021/12/22 04:19:35;;;;;;;10.93;6.73;;;-1.50;81.30;;;;;;5002396;28;20460;-45
2021/12/22 04:22:02;;;;;;;9.20;7.30;;;-1.50;81.20;;;;;;4988240;28;20492;-45
2021/12/22 04:24:29;;;;;;;12.33;8.60;;;-1.50;81.20;;;;;;4998942;28;20464;-44
2021/12/22 04:26:56;;;;;;;11.57;8.80;;;-1.50;81.10;;;;;;5004362;28;20469;-45
2021/12/22 04:29:23;;;;;;;9.87;8.37;;;-1.50;81.20;;;;;;4986817;28;20833;-45
2021/12/22 04:31:49;;;;;;;11.17;6.90;;;-1.60;81.00;;;;;;5002081;28;20457;-45
2021/12/22 04:34:16;;;;;;;8.93;6.90;;;-1.60;80.90;;;;;;4999251;28;20460;-45
2021/12/22 04:36:43;;;;;;;13.40;7.20;;;-1.60;81.00;;;;;;4996448;28;20530;-45
2021/12/22 04:39:11;;;;;;;8.67;7.50;;;-1.60;81.20;;;;;;5003801;28;20460;-45
2021/12/22 04:41:38;;;;;;;10.37;7.57;;;-1.60;81.40;;;;;;4999787;28;20489;-45
2021/12/22 04:44:05;;;;;;;10.97;7.47;;;-1.60;81.30;;;;;;4984884;28;20461;-45
2021/12/22 04:46:33;;;;;;;10.43;6.33;;;-1.60;81.40;;;;;;5000323;28;20467;-44
2021/12/22 04:48:59;;;;;;;10.63;7.80;;;-1.60;81.40;;;;;;5000498;28;20448;-45
2021/12/22 04:51:29;;;;;;;9.10;7.03;;;-1.60;81.50;;;;;;4983049;28;20972;-45
2021/12/22 04:54:31;;;;;;;12.03;6.77;;;-1.60;81.40;;;;;;4982805;28;20551;-45
2021/12/22 04:56:45;;;;;;;9.07;6.30;;;-1.60;81.30;;;;;;4999992;28;20468;-45
2021/12/22 04:59:12;;;;;;;9.13;7.40;;;-1.60;81.30;;;;;;4987691;28;20935;-45
2021/12/22 05:01:39;;;;;;;10.57;7.60;;;-1.60;81.40;;;;;;4999132;28;20985;-45
2021/12/22 05:04:06;;;;;;;11.53;7.80;;;-1.60;81.50;;;;;;5001662;28;20502;-45
2021/12/22 05:06:35;;;;;;;8.80;6.97;;;-1.60;81.40;;;;;;5000851;28;21044;-45
2021/12/22 05:09:03;;;;;;;10.70;7.13;;;-1.60;81.40;;;;;;4986030;28;20854;-45
2021/12/22 05:11:31;;;;;;;16.20;7.37;;;-1.60;81.30;;;;;;4986190;28;20464;-45
2021/12/22 05:13:57;;;;;;;8.33;6.80;;;-1.70;81.40;;;;;;4985136;28;20468;-45
2021/12/22 05:16:24;;;;;;;10.87;7.43;;;-1.70;81.40;;;;;;4999237;28;20472;-45
2021/12/22 05:21:22;;;;;;;8.53;7.60;;;-1.70;81.50;;;;;;5003147;28;20965;-45
2021/12/22 05:23:49;;;;;;;8.70;6.60;;;-1.70;81.50;;;;;;5000838;28;20448;-45
2021/12/22 05:26:16;;;;;;;8.17;6.50;;;-1.70;81.60;;;;;;4998818;28;20953;-44
2021/12/22 05:28:43;;;;;;;14.00;7.37;;;-1.70;81.60;;;;;;5000924;28;20461;-44
2021/12/22 05:31:10;;;;;;;12.40;7.87;;;-1.70;81.60;;;;;;4983960;28;20452;-44
2021/12/22 05:33:36;;;;;;;17.57;8.03;;;-1.60;81.50;;;;;;4998708;28;20457;-45
2021/12/22 05:36:04;;;;;;;14.33;8.43;;;-1.70;81.60;;;;;;5001867;28;20468;-44
2021/12/22 05:38:31;;;;;;;17.37;8.77;;;-1.70;81.60;;;;;;5003134;28;20830;-44
2021/12/22 05:40:58;;;;;;;11.27;7.70;;;-1.70;81.70;;;;;;4987235;28;20460;-45
2021/12/22 05:43:25;;;;;;;14.00;7.73;;;-1.70;81.70;;;;;;4986417;28;20484;-45
2021/12/22 05:45:51;;;;;;;13.93;7.10;;;-1.70;81.70;;;;;;5000546;28;21013;-45
2021/12/22 05:48:21;;;;;;;11.83;7.50;;;-1.60;81.70;;;;;;4985354;28;20962;-45
2021/12/22 05:50:51;;;;;;;9.90;7.87;;;-1.70;81.70;;;;;;5001775;28;20452;-45
2021/12/22 05:53:18;;;;;;;11.10;7.73;;;-1.70;81.70;;;;;;4985393;28;20464;-45
2021/12/22 05:55:45;;;;;;;12.23;8.20;;;-1.70;81.70;;;;;;4987346;28;20471;-45
2021/12/22 05:58:11;;;;;;;15.77;9.73;;;-1.70;81.80;;;;;;4981804;28;20487;-45
2021/12/22 06:00:38;;;;;;;9.00;7.60;;;-1.70;81.70;;;;;;4988998;28;20467;-45
2021/12/22 06:03:05;;;;;;;15.07;8.87;;;-1.70;81.50;;;;;;4983006;28;20492;-45
2021/12/22 06:05:32;;;;;;;11.27;7.17;;;-1.70;81.70;;;;;;4999445;28;20457;-44
2021/12/22 06:07:59;;;;;;;8.30;7.40;;;-1.70;81.70;;;;;;5001611;28;20473;-44
2021/12/22 06:10:26;;;;;;;11.97;7.50;;;-1.70;81.90;;;;;;5000609;28;20551;-44
2021/12/22 06:12:52;;;;;;;15.10;8.93;;;-1.70;81.90;;;;;;4984069;28;20462;-45
2021/12/22 06:15:19;;;;;;;16.30;7.40;;;-1.70;81.80;;;;;;5000321;28;20464;-45
2021/12/22 06:17:53;;;;;;;15.93;8.30;;;-1.70;82.00;;;;;;4983675;28;20478;-45
2021/12/22 06:20:19;;;;;;;10.80;6.83;;;-1.70;82.00;;;;;;4983589;28;20500;-45
2021/12/22 06:22:46;;;;;;;11.40;7.67;;;-1.70;81.90;;;;;;4982784;28;20492;-45
2021/12/22 06:25:13;;;;;;;10.23;7.67;;;-1.80;81.90;;;;;;5001031;28;20452;-46
2021/12/22 06:27:47;;;;;;;10.40;8.20;;;-1.80;81.80;;;;;;5001333;28;20449;-45
2021/12/22 06:30:14;;;;;;;13.23;8.47;;;-1.80;81.90;;;;;;4980733;28;20467;-45
2021/12/22 06:32:41;;;;;;;13.43;7.70;;;-1.80;81.70;;;;;;5004448;28;20453;-45
2021/12/22 06:35:08;;;;;;;11.70;7.50;;;-1.80;81.60;;;;;;5000587;28;20853;-45
2021/12/22 06:37:36;;;;;;;12.23;7.80;;;-1.80;81.50;;;;;;4997138;28;20461;-45
2021/12/22 06:40:06;;;;;;;15.03;8.87;;;-1.80;81.90;;;;;;5003430;28;20489;-45
2021/12/22 06:42:33;;;;;;;9.13;8.20;;;-1.80;81.80;;;;;;4998360;28;20480;-45
2021/12/22 06:45:00;;;;;;;11.93;9.03;;;-1.80;81.90;;;;;;5002655;28;20853;-45
2021/12/22 06:47:27;;;;;;;15.70;8.73;;;-1.80;81.80;;;;;;4997749;28;20457;-45
2021/12/22 06:49:53;;;;;;;13.03;7.70;;;-1.80;81.40;;;;;;5001631;28;20456;-45
2021/12/22 06:52:23;;;;;;;13.30;8.43;;;-1.80;81.40;;;;;;4998773;28;20464;-45
2021/12/22 06:54:51;;;;;;;11.40;8.17;;;-1.80;81.20;;;;;;4989378;28;20588;-45
2021/12/22 06:57:20;;;;;;;13.67;8.80;;;-1.80;81.20;;;;;;4983691;28;20548;-45
2021/12/22 06:59:47;;;;;;;12.23;7.63;;;-1.80;81.30;;;;;;4991824;28;20483;-45
2021/12/22 07:02:16;;;;;;;13.40;9.60;;;-1.80;81.20;;;;;;4992712;28;20544;-44
2021/12/22 07:04:43;;;;;;;17.13;9.33;;;-1.90;81.40;;;;;;4985618;28;20659;-44
2021/12/22 07:07:10;;;;;;;12.13;8.13;;;-1.90;81.40;;;;;;4990741;28;20456;-45
2021/12/22 07:09:41;;;;;;;13.37;8.80;;;-1.90;81.40;;;;;;4986331;28;20571;-44
2021/12/22 07:12:11;;;;;;;18.63;9.43;;;-1.80;81.30;;;;;;5003591;28;20456;-44
2021/12/22 07:14:38;;;;;;;10.67;7.63;;;-1.90;81.50;;;;;;5004825;28;20968;-44
2021/12/22 07:17:05;;;;;;;11.90;8.03;;;-1.90;81.50;;;;;;5002874;28;20452;-44
2021/12/22 07:19:31;;;;;;;13.13;8.97;;;-1.90;81.30;;;;;;5002581;28;20934;-44
2021/12/22 07:21:58;;;;;;;14.60;8.97;;;-1.90;81.50;;;;;;5000319;28;20504;-45
2021/12/22 07:24:25;;;;;;;14.03;8.93;;;-1.90;81.60;;;;;;5001376;28;20467;-45
2021/12/22 07:26:52;;;;;;;12.07;7.90;;;-1.90;81.50;;;;;;5006934;28;20464;-45
2021/12/22 07:29:18;;;;;;;9.63;7.27;;;-1.90;81.80;;;;;;4985527;28;20456;-45
2021/12/22 07:31:45;;;;;;;13.50;8.80;;;-1.90;81.80;;;;;;5000853;28;20536;-45
2021/12/22 07:34:28;;;;;;;15.00;8.97;;;-1.90;81.70;;;;;;5006459;28;20946;-45
2021/12/22 07:37:25;;;;;;;12.60;8.63;;;-1.90;81.70;;;;;;4991272;28;20461;-45
2021/12/22 07:39:52;;;;;;;12.87;8.63;;;-1.90;81.60;;;;;;4983702;28;20823;-45
2021/12/22 07:42:19;;;;;;;11.97;8.03;;;-1.90;81.80;;;;;;4988104;28;20492;-45
2021/12/22 07:44:46;;;;;;;13.67;9.17;;;-1.90;82.10;;;;;;5005325;28;20556;-45
2021/12/22 07:47:13;;;;;;;10.70;7.93;;;-1.90;82.60;;;;;;5004571;28;20547;-45
2021/12/22 07:49:40;;;;;;;11.00;8.50;;;-1.80;82.50;;;;;;5002278;28;20558;-45
2021/12/22 07:52:07;;;;;;;10.50;8.27;;;-1.80;82.50;;;;;;4971671;28;20485;-45
2021/12/22 07:54:34;;;;;;;16.93;10.20;;;-1.80;82.30;;;;;;4985833;28;20469;-45
2021/12/22 07:57:01;;;;;;;12.17;9.30;;;-1.80;82.20;;;;;;4989668;28;21339;-45
2021/12/22 07:59:28;;;;;;;11.20;8.00;;;-1.80;82.10;;;;;;4983502;28;20487;-45
2021/12/22 08:01:56;;;;;;;17.00;9.50;;;-1.70;82.10;;;;;;5001604;28;20466;-45
2021/12/22 08:04:24;;;;;;;12.87;9.63;;;-1.70;82.30;;;;;;5001071;28;20459;-45
2021/12/22 08:06:51;;;;;;;10.23;7.87;;;-1.70;82.50;;;;;;5000480;28;20733;-45
2021/12/22 08:09:17;;;;;;;13.37;10.10;;;-1.70;82.70;;;;;;4998218;28;20457;-44
2021/12/22 08:11:44;;;;;;;13.53;9.10;;;-1.70;82.80;;;;;;4988647;28;20459;-45
2021/12/22 08:14:11;;;;;;;12.83;9.50;;;-1.70;82.90;;;;;;4999334;28;20478;-45
2021/12/22 08:16:38;;;;;;;13.50;9.53;;;-1.60;83.60;;;;;;4997937;28;20456;-45
2021/12/22 08:19:05;;;;;;;19.70;8.87;;;-1.60;83.60;;;;;;4983143;28;20720;-45
2021/12/22 08:21:32;;;;;;;16.63;9.60;;;-1.60;83.50;;;;;;5003730;28;20958;-45
2021/12/22 08:23:59;;;;;;;13.47;10.40;;;-1.50;83.40;;;;;;4988687;28;20874;-45
2021/12/22 08:26:26;;;;;;;14.33;9.23;;;-1.50;83.90;;;;;;5000685;28;20921;-45
2021/12/22 08:28:52;;;;;;;13.83;8.90;;;-1.50;84.10;;;;;;5001810;28;20457;-44
2021/12/22 08:31:19;;;;;;;12.70;8.80;;;-1.50;84.40;;;;;;4999458;28;20544;-45
2021/12/22 08:33:47;;;;;;;12.77;8.77;;;-1.50;84.60;;;;;;4998231;28;20988;-45
2021/12/22 08:39:05;;;;;;;11.33;9.20;;;-1.40;84.80;;;;;;4987863;28;20508;-44
2021/12/22 08:41:36;;;;;;;13.40;11.00;;;-1.30;84.60;;;;;;5000920;28;20472;-45
2021/12/22 08:44:06;;;;;;;16.87;10.40;;;-1.30;84.40;;;;;;5001408;28;20944;-45
2021/12/22 08:46:35;;;;;;;13.83;10.10;;;-1.20;84.40;;;;;;4984512;28;20469;-45
2021/12/22 08:49:04;;;;;;;14.07;10.50;;;-1.20;84.40;;;;;;4998391;28;20461;-45
2021/12/22 08:51:32;;;;;;;13.27;10.50;;;-1.20;84.20;;;;;;4980936;28;20465;-45
2021/12/22 08:54:00;;;;;;;15.93;11.57;;;-1.20;84.20;;;;;;5003073;28;20588;-45
2021/12/22 08:56:29;;;;;;;13.27;10.20;;;-1.20;84.40;;;;;;4981519;28;20472;-45
2021/12/22 08:58:56;;;;;;;18.83;10.50;;;-1.10;84.30;;;;;;4987990;28;20485;-45
2021/12/22 09:01:24;;;;;;;13.60;11.13;;;-1.10;84.20;;;;;;4999372;28;20966;-45
2021/12/22 09:03:52;;;;;;;13.33;10.40;;;-1.10;84.20;;;;;;5000243;28;20579;-45
2021/12/22 09:06:20;;;;;;;20.37;12.10;;;-1.00;84.30;;;;;;4989023;28;20507;-45
2021/12/22 09:08:46;;;;;;;17.43;11.63;;;-0.90;84.00;;;;;;5001241;28;20478;-45
2021/12/22 09:11:14;;;;;;;14.00;10.53;;;-0.90;83.80;;;;;;5003437;28;20483;-45
2021/12/22 09:13:41;;;;;;;13.70;10.07;;;-0.90;83.80;;;;;;4981700;28;20476;-45
2021/12/22 09:16:09;;;;;;;17.27;10.70;;;-0.90;83.80;;;;;;4984715;28;20468;-45
2021/12/22 09:18:36;;;;;;;16.40;10.80;;;-0.80;83.70;;;;;;4987203;28;20461;-45
2021/12/22 09:21:05;;;;;;;14.20;11.03;;;-0.80;83.80;;;;;;5003452;28;20495;-45
2021/12/22 09:23:31;;;;;;;13.13;11.73;;;-0.80;83.80;;;;;;4984741;28;20493;-45
2021/12/22 09:25:58;;;;;;;20.10;13.10;;;-0.70;83.90;;;;;;4998672;28;21053;-45
2021/12/22 09:28:25;;;;;;;16.37;11.47;;;-0.70;83.60;;;;;;5001431;28;20464;-45
2021/12/22 09:30:52;;;;;;;13.07;10.57;;;-0.60;83.60;;;;;;4982332;28;20484;-45
2021/12/22 09:33:20;;;;;;;14.90;11.57;;;-0.50;83.30;;;;;;5001446;28;20523;-45
2021/12/22 09:35:48;;;;;;;15.67;11.03;;;-0.50;82.80;;;;;;4971954;28;20473;-45
2021/12/22 09:38:16;;;;;;;19.93;11.57;;;-0.40;82.80;;;;;;5001703;28;20958;-46
2021/12/22 09:40:42;;;;;;;18.87;10.53;;;-0.30;82.70;;;;;;4999743;28;20460;-44
2021/12/22 09:43:09;;;;;;;16.10;10.90;;;-0.20;82.50;;;;;;4999882;28;20483;-45
2021/12/22 09:45:42;;;;;;;17.23;11.40;;;-0.10;82.30;;;;;;4983257;28;20632;-45
2021/12/22 09:53:27;;;;;;;16.27;10.87;;;0.20;81.20;;;;;;4987324;28;20977;-44
2021/12/22 09:55:55;;;;;;;13.23;11.07;;;0.30;80.90;;;;;;4999732;28;20460;-44
2021/12/22 09:58:22;;;;;;;17.50;12.43;;;0.40;80.80;;;;;;4999674;28;20485;-45
2021/12/22 10:00:50;;;;;;;15.50;10.43;;;0.40;80.70;;;;;;4999953;28;20479;-44
2021/12/22 10:03:20;;;;;;;18.00;13.23;;;0.50;80.30;;;;;;5002196;28;21073;-45
2021/12/22 10:05:47;;;;;;;11.20;10.10;;;0.60;80.10;;;;;;5000068;28;20457;-45
2021/12/22 10:08:22;;;;;;;15.30;11.67;;;0.70;79.90;;;;;;5000317;28;20455;-46
2021/12/22 10:11:03;;;;;;;20.20;10.50;;;0.80;79.70;;;;;;4978854;28;20448;-44
2021/12/22 10:13:31;;;;;;;13.23;11.03;;;0.80;79.40;;;;;;5001117;28;20470;-44
2021/12/22 10:15:59;;;;;;;11.93;10.00;;;0.80;79.20;;;;;;4999458;28;20468;-44
2021/12/22 10:18:28;;;;;;;23.97;11.07;;;0.80;79.00;;;;;;4996876;28;20464;-45
2021/12/22 10:21:08;;;;;;;18.83;13.30;;;0.90;78.60;;;;;;5001852;28;20954;-45
2021/12/22 10:23:36;;;;;;;13.27;11.17;;;0.90;78.50;;;;;;4997639;28;21044;-45
2021/12/22 10:26:07;;;;;;;24.83;17.30;;;0.90;78.50;;;;;;4988955;28;20468;-44
2021/12/22 10:28:48;;;;;;;17.20;13.40;;;0.90;78.50;;;;;;4987049;28;20450;-44
2021/12/22 10:31:16;;;;;;;15.63;11.80;;;0.90;78.50;;;;;;5001580;28;20464;-45
2021/12/22 10:33:43;;;;;;;13.10;10.53;;;0.90;78.30;;;;;;5002052;28;20464;-45
2021/12/22 10:36:13;;;;;;;22.67;15.33;;;1.00;78.00;;;;;;5001466;28;20452;-45
2021/12/22 10:38:46;;;;;;;16.63;13.10;;;1.00;77.90;;;;;;4984387;28;20453;-45
2021/12/22 10:41:13;;;;;;;19.90;15.70;;;1.00;77.90;;;;;;5002642;28;20472;-45
2021/12/22 10:43:44;;;;;;;18.47;14.47;;;1.00;77.40;;;;;;5000456;28;21023;-45
2021/12/22 10:46:15;;;;;;;14.40;11.00;;;1.00;77.40;;;;;;5002208;28;20480;-45
2021/12/22 10:51:36;;;;;;;15.87;11.23;;;0.90;77.70;;;;;;5002244;28;20452;-46
2021/12/22 10:54:08;;;;;;;13.97;11.63;;;1.00;78.00;;;;;;4971578;28;20611;-45
2021/12/22 10:56:41;;;;;;;15.87;11.40;;;1.00;78.00;;;;;;4984437;28;20495;-45
2021/12/22 10:59:13;;;;;;;24.57;11.80;;;1.10;77.90;;;;;;5003301;28;20472;-45
2021/12/22 11:01:40;;;;;;;19.10;11.47;;;1.10;77.70;;;;;;5001565;28;20536;-45
2021/12/22 11:04:17;;;;;;;13.67;10.97;;;1.10;77.50;;;;;;5002162;28;21308;-45
2021/12/22 11:06:48;;;;;;;20.30;12.67;;;1.10;77.60;;;;;;4999974;28;20587;-45
2021/12/22 11:09:17;;;;;;;16.77;12.27;;;1.20;77.50;;;;;;4998638;28;20475;-45
2021/12/22 11:11:55;;;;;;;17.60;12.37;;;1.20;77.60;;;;;;5004170;28;20463;-45
2021/12/22 11:14:27;;;;;;;15.43;11.00;;;1.20;77.60;;;;;;4985982;28;20461;-45
2021/12/22 11:16:59;;;;;;;18.97;12.10;;;1.30;77.70;;;;;;5003926;28;20472;-45
2021/12/22 11:22:14;;;;;;;12.90;11.47;;;1.30;77.80;;;;;;4940214;23;20549;-43
2021/12/22 11:24:43;;;;;;;17.57;12.93;;;1.30;77.80;;;;;;4965700;28;20941;-43
2021/12/22 11:27:12;;;;;;;14.13;10.43;;;1.40;77.70;;;;;;4968795;28;20533;-42
2021/12/22 11:29:54;;;;;;;18.77;12.67;;;1.40;77.80;;;;;;4981808;28;20469;-44
2021/12/22 11:32:24;;;;;;;18.33;11.90;;;1.30;77.60;;;;;;4980477;28;20505;-44
2021/12/22 11:34:59;;;;;;;13.23;11.80;;;1.20;77.70;;;;;;4966321;28;20598;-44
2021/12/22 11:37:27;;;;;;;15.93;12.27;;;1.30;77.80;;;;;;4969967;28;20457;-43
2021/12/22 11:39:55;;;;;;;13.60;11.27;;;1.30;77.90;;;;;;4960277;28;20819;-43
2021/12/22 11:42:25;;;;;;;19.10;12.93;;;1.30;77.90;;;;;;4966979;28;20462;-43
2021/12/22 11:44:57;;;;;;;16.63;11.93;;;1.30;77.90;;;;;;4963960;28;20537;-43
2021/12/22 11:47:25;;;;;;;15.53;12.53;;;1.30;77.70;;;;;;4962922;28;20490;-43
2021/12/22 11:49:52;;;;;;;18.57;13.67;;;1.30;77.60;;;;;;4964739;28;20454;-43
2021/12/22 11:52:34;;;;;;;20.20;14.47;;;1.40;77.40;;;;;;4964184;28;20471;-43
2021/12/22 11:55:25;;;;;;;17.30;11.70;;;1.40;77.40;;;;;;4962526;28;20471;-43
2021/12/22 11:58:10;;;;;;;14.30;11.03;;;1.40;77.00;;;;;;4980738;28;20945;-43
2021/12/22 12:00:38;;;;;;;19.90;12.80;;;1.40;76.90;;;;;;4970123;28;20472;-44
2021/12/22 12:03:36;;;;;;;21.67;12.07;;;1.50;76.80;;;;;;4965512;28;20833;-43
2021/12/22 12:06:15;;;;;;;19.37;13.77;;;1.50;77.00;;;;;;4943583;28;20475;-43
2021/12/22 12:08:52;;;;;;;23.13;13.90;;;1.50;77.20;;;;;;4967493;28;20460;-43
2021/12/22 12:14:38;;;;;;;17.63;12.70;;;1.60;77.20;;;;;;4962817;28;20481;-43
2021/12/22 12:23:29;;;;;;;19.80;13.30;;;1.70;76.80;;;;;;4965755;28;20486;-43
2021/12/22 12:26:02;;;;;;;19.57;14.17;;;1.70;76.60;;;;;;4963165;28;20963;-44
2021/12/22 12:28:31;;;;;;;20.43;13.40;;;1.70;76.30;;;;;;4963785;28;20455;-44
2021/12/22 12:31:02;;;;;;;16.40;14.37;;;1.80;76.10;;;;;;4966083;28;20466;-43
2021/12/22 12:33:36;;;;;;;18.10;12.80;;;1.80;76.30;;;;;;4980354;28;20474;-43
2021/12/22 12:36:06;;;;;;;16.23;12.53;;;1.80;76.20;;;;;;4964829;28;20466;-43
2021/12/22 12:38:52;;;;;;;15.00;12.13;;;1.80;76.10;;;;;;4965080;28;20463;-44
2021/12/22 12:41:21;;;;;;;16.77;13.57;;;1.90;76.00;;;;;;4967070;28;20466;-44
2021/12/22 12:43:55;;;;;;;19.87;12.77;;;2.00;76.00;;;;;;4964326;28;20501;-44
2021/12/22 12:46:41;;;;;;;17.17;12.30;;;2.00;75.60;;;;;;4963343;28;20548;-45
2021/12/22 12:49:12;;;;;;;17.97;14.37;;;2.00;75.80;;;;;;4970018;28;20504;-44
2021/12/22 12:51:42;;;;;;;20.17;13.40;;;2.00;75.20;;;;;;4963836;28;20836;-43
2021/12/22 12:54:18;;;;;;;16.63;12.43;;;2.00;74.80;;;;;;4978807;28;21035;-44
2021/12/22 12:56:57;;;;;;;18.37;12.73;;;2.00;75.00;;;;;;4961258;28;20546;-44
2021/12/22 12:59:39;;;;;;;16.53;12.70;;;2.00;75.20;;;;;;4962419;28;20553;-44
2021/12/22 13:02:08;;;;;;;16.83;13.17;;;2.00;75.10;;;;;;4965617;28;20456;-44
2021/12/22 13:04:38;;;;;;;18.03;13.07;;;2.10;74.50;;;;;;4961942;28;20486;-43
2021/12/22 13:07:19;;;;;;;19.83;14.30;;;2.00;74.60;;;;;;4966246;28;20469;-43
2021/12/22 13:09:52;;;;;;;17.60;13.27;;;2.10;74.60;;;;;;4963677;28;20446;-44
2021/12/22 13:17:44;;;;;;;19.83;12.80;;;2.20;75.30;;;;;;4960493;28;20504;-43
2021/12/22 13:20:14;;;;;;;17.93;13.93;;;2.20;75.10;;;;;;4967031;28;20489;-44
2021/12/22 13:22:45;;;;;;;17.87;12.03;;;2.30;75.10;;;;;;4961553;28;20478;-43
2021/12/22 13:25:31;;;;;;;16.53;13.50;;;2.30;74.50;;;;;;4966527;28;20572;-44
2021/12/22 13:28:02;;;;;;;15.10;13.50;;;2.30;74.50;;;;;;4965151;28;20981;-43
2021/12/22 13:30:52;;;;;;;23.10;14.47;;;2.40;74.60;;;;;;4963410;28;20939;-43
2021/12/22 13:34:01;;;;;;;16.97;12.83;;;2.40;74.60;;;;;;4962586;28;20486;-44